sensor_id;sensor_type;location;lat;lon;timestamp;pressure;altitude;pressure_sealevel;temperature;humidity
79077;BME280;68477;42.698;23.342;2023-06-24T00:00:55;95397.06;;;22.18;63.47
79077;BME280;68477;42.698;23.342;2023-06-24T00:03:21;95398.53;;;22.09;63.79
79077;BME280;68477;42.698;23.342;2023-06-24T00:05:46;95402.88;;;21.98;64.54
79077;BME280;68477;42.698;23.342;2023-06-24T00:08:15;95402.03;;;22.10;64.49
79077;BME280;68477;42.698;23.342;2023-06-24T00:10:45;95408.84;;;22.17;63.66
79077;BME280;68477;42.698;23.342;2023-06-24T00:13:11;95406.81;;;21.96;64.25
79077;BME280;68477;42.698;23.342;2023-06-24T00:15:37;95395.09;;;21.85;64.49
79077;BME280;68477;42.698;23.342;2023-06-24T00:18:06;95397.59;;;22.03;64.65
79077;BME280;68477;42.698;23.342;2023-06-24T00:20:31;95393.28;;;22.02;64.94
79077;BME280;68477;42.698;23.342;2023-06-24T00:22:57;95395.28;;;21.95;64.39
79077;BME280;68477;42.698;23.342;2023-06-24T00:25:24;95395.97;;;22.02;64.69
79077;BME280;68477;42.698;23.342;2023-06-24T00:27:50;95398.94;;;21.89;64.66
79077;BME280;68477;42.698;23.342;2023-06-24T00:30:16;95404.53;;;21.88;64.48
79077;BME280;68477;42.698;23.342;2023-06-24T00:32:41;95408.97;;;21.82;64.63
79077;BME280;68477;42.698;23.342;2023-06-24T00:35:07;95405.91;;;21.90;64.70
79077;BME280;68477;42.698;23.342;2023-06-24T00:37:33;95396.91;;;21.68;64.76
79077;BME280;68477;42.698;23.342;2023-06-24T00:39:58;95399.31;;;21.81;65.04
79077;BME280;68477;42.698;23.342;2023-06-24T00:42:24;95398.41;;;21.75;65.46
79077;BME280;68477;42.698;23.342;2023-06-24T00:44:50;95408.44;;;21.68;65.03
79077;BME280;68477;42.698;23.342;2023-06-24T00:47:16;95402.50;;;21.66;64.93
79077;BME280;68477;42.698;23.342;2023-06-24T00:49:43;95393.66;;;21.66;64.79
79077;BME280;68477;42.698;23.342;2023-06-24T00:52:11;95390.50;;;21.69;65.11
79077;BME280;68477;42.698;23.342;2023-06-24T00:54:44;95389.34;;;21.76;64.83
79077;BME280;68477;42.698;23.342;2023-06-24T00:57:10;95392.13;;;21.70;65.77
79077;BME280;68477;42.698;23.342;2023-06-24T00:59:37;95379.72;;;21.64;65.79
79077;BME280;68477;42.698;23.342;2023-06-24T01:02:04;95385.56;;;21.49;66.50
79077;BME280;68477;42.698;23.342;2023-06-24T01:04:30;95392.13;;;21.41;66.00
79077;BME280;68477;42.698;23.342;2023-06-24T01:06:57;95374.84;;;21.49;65.45
79077;BME280;68477;42.698;23.342;2023-06-24T01:09:22;95373.72;;;21.45;65.31
79077;BME280;68477;42.698;23.342;2023-06-24T01:11:48;95374.28;;;21.47;66.62
79077;BME280;68477;42.698;23.342;2023-06-24T01:14:14;95379.75;;;21.52;65.10
79077;BME280;68477;42.698;23.342;2023-06-24T01:16:53;95373.22;;;21.48;65.75
79077;BME280;68477;42.698;23.342;2023-06-24T01:20:00;95375.22;;;21.53;65.46
79077;BME280;68477;42.698;23.342;2023-06-24T01:25:49;95370.56;;;21.48;66.31
79077;BME280;68477;42.698;23.342;2023-06-24T01:34:28;95377.66;;;21.54;65.84
79077;BME280;68477;42.698;23.342;2023-06-24T01:39:34;95377.53;;;21.49;65.89
79077;BME280;68477;42.698;23.342;2023-06-24T01:42:07;95373.34;;;21.53;66.11
79077;BME280;68477;42.698;23.342;2023-06-24T01:44:34;95384.66;;;21.43;66.60
79077;BME280;68477;42.698;23.342;2023-06-24T01:47:03;95400.75;;;21.32;66.97
79077;BME280;68477;42.698;23.342;2023-06-24T01:49:30;95405.16;;;21.26;67.25
79077;BME280;68477;42.698;23.342;2023-06-24T01:51:59;95410.25;;;21.16;67.91
79077;BME280;68477;42.698;23.342;2023-06-24T01:54:26;95408.63;;;21.27;67.30
79077;BME280;68477;42.698;23.342;2023-06-24T01:56:54;95413.06;;;21.33;67.26
79077;BME280;68477;42.698;23.342;2023-06-24T01:59:21;95406.09;;;21.32;67.20
79077;BME280;68477;42.698;23.342;2023-06-24T02:01:47;95402.22;;;21.16;67.78
79077;BME280;68477;42.698;23.342;2023-06-24T02:04:14;95411.88;;;21.05;68.47
79077;BME280;68477;42.698;23.342;2023-06-24T02:06:42;95421.78;;;21.05;68.16
79077;BME280;68477;42.698;23.342;2023-06-24T02:09:09;95421.56;;;21.18;68.24
79077;BME280;68477;42.698;23.342;2023-06-24T02:11:37;95420.50;;;21.19;68.10
79077;BME280;68477;42.698;23.342;2023-06-24T02:14:05;95425.97;;;21.01;68.57
79077;BME280;68477;42.698;23.342;2023-06-24T02:16:32;95417.94;;;20.77;70.15
79077;BME280;68477;42.698;23.342;2023-06-24T02:18:59;95419.47;;;20.97;69.39
79077;BME280;68477;42.698;23.342;2023-06-24T02:21:26;95416.91;;;21.02;69.24
79077;BME280;68477;42.698;23.342;2023-06-24T02:23:52;95428.66;;;21.01;69.32
79077;BME280;68477;42.698;23.342;2023-06-24T02:26:19;95432.94;;;20.90;70.52
79077;BME280;68477;42.698;23.342;2023-06-24T02:28:45;95435.03;;;21.11;69.76
79077;BME280;68477;42.698;23.342;2023-06-24T02:31:12;95437.25;;;21.14;70.34
79077;BME280;68477;42.698;23.342;2023-06-24T02:33:39;95447.25;;;21.19;70.17
79077;BME280;68477;42.698;23.342;2023-06-24T02:36:04;95450.59;;;20.79;71.93
79077;BME280;68477;42.698;23.342;2023-06-24T02:38:30;95452.22;;;20.80;71.80
79077;BME280;68477;42.698;23.342;2023-06-24T02:40:55;95467.31;;;20.63;72.51
79077;BME280;68477;42.698;23.342;2023-06-24T02:43:22;95473.94;;;20.72;72.50
79077;BME280;68477;42.698;23.342;2023-06-24T02:45:48;95467.06;;;20.53;73.54
79077;BME280;68477;42.698;23.342;2023-06-24T02:48:16;95457.59;;;20.39;74.16
79077;BME280;68477;42.698;23.342;2023-06-24T02:50:43;95466.13;;;20.59;73.14
79077;BME280;68477;42.698;23.342;2023-06-24T02:53:14;95460.56;;;20.60;73.34
79077;BME280;68477;42.698;23.342;2023-06-24T02:55:40;95462.41;;;20.60;73.52
79077;BME280;68477;42.698;23.342;2023-06-24T02:58:08;95467.50;;;20.20;75.48
79077;BME280;68477;42.698;23.342;2023-06-24T03:00:36;95467.91;;;20.35;74.88
79077;BME280;68477;42.698;23.342;2023-06-24T03:03:03;95485.97;;;20.21;75.29
79077;BME280;68477;42.698;23.342;2023-06-24T03:05:30;95485.09;;;20.27;75.30
79077;BME280;68477;42.698;23.342;2023-06-24T03:07:57;95476.47;;;20.25;75.60
79077;BME280;68477;42.698;23.342;2023-06-24T03:10:24;95469.72;;;20.23;75.74
79077;BME280;68477;42.698;23.342;2023-06-24T03:12:50;95476.22;;;20.45;74.57
79077;BME280;68477;42.698;23.342;2023-06-24T03:15:15;95476.38;;;20.50;74.02
79077;BME280;68477;42.698;23.342;2023-06-24T03:17:41;95478.00;;;20.33;74.31
79077;BME280;68477;42.698;23.342;2023-06-24T03:20:07;95481.09;;;20.18;75.81
79077;BME280;68477;42.698;23.342;2023-06-24T03:22:33;95475.19;;;19.98;76.40
79077;BME280;68477;42.698;23.342;2023-06-24T03:24:58;95474.91;;;19.88;77.12
79077;BME280;68477;42.698;23.342;2023-06-24T03:27:24;95476.34;;;20.20;75.35
79077;BME280;68477;42.698;23.342;2023-06-24T03:29:49;95483.94;;;20.35;74.90
79077;BME280;68477;42.698;23.342;2023-06-24T03:32:15;95497.00;;;20.43;74.85
79077;BME280;68477;42.698;23.342;2023-06-24T03:34:40;95496.31;;;20.48;74.26
79077;BME280;68477;42.698;23.342;2023-06-24T03:37:06;95504.47;;;20.53;74.48
79077;BME280;68477;42.698;23.342;2023-06-24T03:39:31;95509.31;;;20.44;74.62
79077;BME280;68477;42.698;23.342;2023-06-24T03:41:57;95505.66;;;20.09;76.20
79077;BME280;68477;42.698;23.342;2023-06-24T03:44:23;95509.31;;;19.96;77.66
79077;BME280;68477;42.698;23.342;2023-06-24T03:46:48;95509.56;;;20.24;76.02
79077;BME280;68477;42.698;23.342;2023-06-24T03:49:14;95514.22;;;20.47;75.13
79077;BME280;68477;42.698;23.342;2023-06-24T03:51:39;95518.97;;;20.45;74.98
79077;BME280;68477;42.698;23.342;2023-06-24T03:54:05;95513.56;;;20.15;76.18
79077;BME280;68477;42.698;23.342;2023-06-24T03:56:30;95510.28;;;20.31;75.98
79077;BME280;68477;42.698;23.342;2023-06-24T03:58:56;95509.59;;;20.36;75.65
79077;BME280;68477;42.698;23.342;2023-06-24T04:01:21;95518.19;;;20.56;73.80
79077;BME280;68477;42.698;23.342;2023-06-24T04:03:47;95519.97;;;20.62;73.49
79077;BME280;68477;42.698;23.342;2023-06-24T04:06:12;95514.00;;;20.60;73.63
79077;BME280;68477;42.698;23.342;2023-06-24T04:08:38;95507.69;;;20.43;74.72
79077;BME280;68477;42.698;23.342;2023-06-24T04:11:09;95514.38;;;20.64;74.58
79077;BME280;68477;42.698;23.342;2023-06-24T04:13:34;95514.94;;;20.54;75.07
79077;BME280;68477;42.698;23.342;2023-06-24T04:16:00;95509.59;;;20.54;74.72
79077;BME280;68477;42.698;23.342;2023-06-24T04:18:26;95510.66;;;20.65;74.59
79077;BME280;68477;42.698;23.342;2023-06-24T04:20:51;95503.31;;;20.60;75.14
79077;BME280;68477;42.698;23.342;2023-06-24T04:23:17;95504.91;;;20.50;75.54
79077;BME280;68477;42.698;23.342;2023-06-24T04:25:43;95494.63;;;20.65;75.76
79077;BME280;68477;42.698;23.342;2023-06-24T04:28:08;95496.53;;;20.76;74.36
79077;BME280;68477;42.698;23.342;2023-06-24T04:30:34;95491.19;;;20.88;74.33
79077;BME280;68477;42.698;23.342;2023-06-24T04:33:07;95493.28;;;20.86;73.90
79077;BME280;68477;42.698;23.342;2023-06-24T04:35:33;95489.19;;;20.83;73.48
79077;BME280;68477;42.698;23.342;2023-06-24T04:37:58;95504.00;;;20.98;72.48
79077;BME280;68477;42.698;23.342;2023-06-24T04:40:24;95506.91;;;21.08;72.11
79077;BME280;68477;42.698;23.342;2023-06-24T04:42:49;95506.31;;;21.06;72.48
79077;BME280;68477;42.698;23.342;2023-06-24T04:45:14;95503.78;;;21.11;72.61
79077;BME280;68477;42.698;23.342;2023-06-24T04:47:40;95507.13;;;21.06;72.51
79077;BME280;68477;42.698;23.342;2023-06-24T04:50:06;95508.19;;;21.17;72.83
79077;BME280;68477;42.698;23.342;2023-06-24T04:52:34;95511.84;;;21.34;72.39
79077;BME280;68477;42.698;23.342;2023-06-24T04:55:00;95515.31;;;21.46;71.32
79077;BME280;68477;42.698;23.342;2023-06-24T04:57:27;95514.50;;;21.58;70.83
79077;BME280;68477;42.698;23.342;2023-06-24T04:59:53;95518.47;;;21.55;70.98
79077;BME280;68477;42.698;23.342;2023-06-24T05:02:19;95506.56;;;21.63;71.40
79077;BME280;68477;42.698;23.342;2023-06-24T05:04:44;95505.53;;;21.64;71.56
79077;BME280;68477;42.698;23.342;2023-06-24T05:07:10;95509.81;;;21.76;70.59
79077;BME280;68477;42.698;23.342;2023-06-24T05:09:37;95510.03;;;21.87;69.75
79077;BME280;68477;42.698;23.342;2023-06-24T05:12:06;95512.00;;;21.91;70.17
79077;BME280;68477;42.698;23.342;2023-06-24T05:14:36;95499.78;;;21.84;70.14
79077;BME280;68477;42.698;23.342;2023-06-24T05:17:03;95499.19;;;21.93;68.95
79077;BME280;68477;42.698;23.342;2023-06-24T05:19:28;95504.16;;;22.01;69.60
79077;BME280;68477;42.698;23.342;2023-06-24T05:21:54;95497.50;;;22.16;67.95
79077;BME280;68477;42.698;23.342;2023-06-24T05:24:20;95496.47;;;22.05;67.46
79077;BME280;68477;42.698;23.342;2023-06-24T05:26:48;95498.72;;;22.36;66.48
79077;BME280;68477;42.698;23.342;2023-06-24T05:29:14;95500.97;;;22.28;66.91
79077;BME280;68477;42.698;23.342;2023-06-24T05:31:40;95499.41;;;22.44;66.69
79077;BME280;68477;42.698;23.342;2023-06-24T05:34:06;95493.97;;;22.55;66.65
79077;BME280;68477;42.698;23.342;2023-06-24T05:36:31;95504.75;;;22.44;66.51
79077;BME280;68477;42.698;23.342;2023-06-24T05:38:57;95504.41;;;22.69;66.04
79077;BME280;68477;42.698;23.342;2023-06-24T05:41:22;95502.13;;;22.77;65.57
79077;BME280;68477;42.698;23.342;2023-06-24T05:43:48;95504.56;;;22.79;64.69
79077;BME280;68477;42.698;23.342;2023-06-24T05:46:13;95506.53;;;22.83;64.89
79077;BME280;68477;42.698;23.342;2023-06-24T05:48:39;95502.97;;;22.94;64.86
79077;BME280;68477;42.698;23.342;2023-06-24T05:51:04;95501.78;;;23.02;64.05
79077;BME280;68477;42.698;23.342;2023-06-24T05:53:30;95482.81;;;23.09;64.01
79077;BME280;68477;42.698;23.342;2023-06-24T05:55:55;95489.22;;;23.08;62.68
79077;BME280;68477;42.698;23.342;2023-06-24T05:58:21;95486.13;;;23.33;63.01
79077;BME280;68477;42.698;23.342;2023-06-24T06:00:46;95485.00;;;23.29;62.54
79077;BME280;68477;42.698;23.342;2023-06-24T06:03:11;95494.25;;;23.21;63.28
79077;BME280;68477;42.698;23.342;2023-06-24T06:05:37;95491.44;;;23.11;63.61
79077;BME280;68477;42.698;23.342;2023-06-24T06:08:03;95478.16;;;23.38;63.78
79077;BME280;68477;42.698;23.342;2023-06-24T06:10:28;95485.72;;;23.41;61.72
79077;BME280;68477;42.698;23.342;2023-06-24T06:12:53;95482.88;;;23.31;61.67
79077;BME280;68477;42.698;23.342;2023-06-24T06:15:19;95475.22;;;23.39;61.71
79077;BME280;68477;42.698;23.342;2023-06-24T06:17:45;95486.34;;;23.48;62.58
79077;BME280;68477;42.698;23.342;2023-06-24T06:20:11;95482.94;;;23.69;61.02
79077;BME280;68477;42.698;23.342;2023-06-24T06:22:37;95486.16;;;23.71;61.43
79077;BME280;68477;42.698;23.342;2023-06-24T06:25:06;95482.59;;;23.88;63.27
79077;BME280;68477;42.698;23.342;2023-06-24T06:27:32;95479.44;;;23.91;62.41
79077;BME280;68477;42.698;23.342;2023-06-24T06:29:58;95477.19;;;24.04;61.01
79077;BME280;68477;42.698;23.342;2023-06-24T06:32:23;95486.22;;;24.20;60.59
79077;BME280;68477;42.698;23.342;2023-06-24T06:34:49;95483.53;;;24.20;59.13
79077;BME280;68477;42.698;23.342;2023-06-24T06:37:15;95484.31;;;24.37;59.76
79077;BME280;68477;42.698;23.342;2023-06-24T06:39:40;95489.06;;;24.30;58.61
79077;BME280;68477;42.698;23.342;2023-06-24T06:42:06;95492.28;;;24.10;58.09
79077;BME280;68477;42.698;23.342;2023-06-24T06:44:32;95491.41;;;24.49;58.70
79077;BME280;68477;42.698;23.342;2023-06-24T06:46:57;95492.91;;;24.66;58.95
79077;BME280;68477;42.698;23.342;2023-06-24T06:49:22;95501.03;;;24.45;58.18
79077;BME280;68477;42.698;23.342;2023-06-24T06:51:48;95501.09;;;24.77;58.75
79077;BME280;68477;42.698;23.342;2023-06-24T06:54:13;95494.06;;;24.71;59.44
79077;BME280;68477;42.698;23.342;2023-06-24T06:56:39;95496.06;;;24.85;58.27
79077;BME280;68477;42.698;23.342;2023-06-24T06:59:05;95493.91;;;24.87;57.82
79077;BME280;68477;42.698;23.342;2023-06-24T07:01:30;95496.53;;;25.04;57.82
79077;BME280;68477;42.698;23.342;2023-06-24T07:03:56;95494.22;;;25.23;56.64
79077;BME280;68477;42.698;23.342;2023-06-24T07:06:22;95495.09;;;25.29;56.11
79077;BME280;68477;42.698;23.342;2023-06-24T07:08:47;95491.38;;;25.77;56.09
79077;BME280;68477;42.698;23.342;2023-06-24T07:11:12;95490.84;;;25.80;54.62
79077;BME280;68477;42.698;23.342;2023-06-24T07:13:38;95497.94;;;25.96;53.92
79077;BME280;68477;42.698;23.342;2023-06-24T07:16:03;95500.38;;;26.03;53.95
79077;BME280;68477;42.698;23.342;2023-06-24T07:18:30;95497.28;;;25.74;54.18
79077;BME280;68477;42.698;23.342;2023-06-24T07:20:56;95502.28;;;26.02;53.42
79077;BME280;68477;42.698;23.342;2023-06-24T07:23:21;95496.41;;;25.68;54.73
79077;BME280;68477;42.698;23.342;2023-06-24T07:25:47;95498.25;;;26.05;55.17
79077;BME280;68477;42.698;23.342;2023-06-24T07:28:12;95494.63;;;26.42;53.62
79077;BME280;68477;42.698;23.342;2023-06-24T07:30:38;95501.09;;;26.46;53.76
79077;BME280;68477;42.698;23.342;2023-06-24T07:33:03;95492.25;;;26.65;53.17
79077;BME280;68477;42.698;23.342;2023-06-24T07:35:33;95489.00;;;26.58;51.82
79077;BME280;68477;42.698;23.342;2023-06-24T07:38:00;95490.34;;;26.56;52.26
79077;BME280;68477;42.698;23.342;2023-06-24T07:40:25;95490.94;;;26.73;52.36
79077;BME280;68477;42.698;23.342;2023-06-24T07:42:51;95486.34;;;26.89;51.72
79077;BME280;68477;42.698;23.342;2023-06-24T07:45:16;95485.78;;;26.92;51.00
79077;BME280;68477;42.698;23.342;2023-06-24T07:47:42;95480.97;;;27.14;51.53
79077;BME280;68477;42.698;23.342;2023-06-24T07:50:07;95495.56;;;27.18;53.40
79077;BME280;68477;42.698;23.342;2023-06-24T07:52:36;95492.31;;;27.26;51.62
79077;BME280;68477;42.698;23.342;2023-06-24T07:55:01;95490.97;;;27.04;51.21
79077;BME280;68477;42.698;23.342;2023-06-24T07:57:26;95490.41;;;27.27;49.68
79077;BME280;68477;42.698;23.342;2023-06-24T07:59:52;95494.44;;;27.40;49.30
79077;BME280;68477;42.698;23.342;2023-06-24T08:02:20;95494.19;;;27.46;50.42
79077;BME280;68477;42.698;23.342;2023-06-24T08:04:47;95501.16;;;27.63;49.21
79077;BME280;68477;42.698;23.342;2023-06-24T08:07:12;95499.31;;;27.68;50.72
79077;BME280;68477;42.698;23.342;2023-06-24T08:09:38;95496.81;;;27.92;48.50
79077;BME280;68477;42.698;23.342;2023-06-24T08:12:04;95494.03;;;28.12;47.69
79077;BME280;68477;42.698;23.342;2023-06-24T08:14:30;95491.53;;;28.36;47.90
79077;BME280;68477;42.698;23.342;2023-06-24T08:16:55;95489.81;;;28.51;48.64
79077;BME280;68477;42.698;23.342;2023-06-24T08:19:21;95493.69;;;28.34;47.21
79077;BME280;68477;42.698;23.342;2023-06-24T08:21:46;95488.03;;;28.26;47.80
79077;BME280;68477;42.698;23.342;2023-06-24T08:24:11;95486.81;;;28.52;46.76
79077;BME280;68477;42.698;23.342;2023-06-24T08:26:37;95483.31;;;28.52;46.10
79077;BME280;68477;42.698;23.342;2023-06-24T08:29:03;95485.88;;;28.28;47.08
79077;BME280;68477;42.698;23.342;2023-06-24T08:31:28;95484.56;;;28.69;46.74
79077;BME280;68477;42.698;23.342;2023-06-24T08:33:54;95480.94;;;28.89;46.70
79077;BME280;68477;42.698;23.342;2023-06-24T08:36:23;95477.63;;;28.97;45.12
79077;BME280;68477;42.698;23.342;2023-06-24T08:38:51;95480.88;;;28.99;47.07
79077;BME280;68477;42.698;23.342;2023-06-24T08:41:17;95469.78;;;28.96;46.07
79077;BME280;68477;42.698;23.342;2023-06-24T08:43:42;95476.81;;;28.97;45.73
79077;BME280;68477;42.698;23.342;2023-06-24T08:46:08;95468.19;;;29.24;45.15
79077;BME280;68477;42.698;23.342;2023-06-24T08:48:35;95466.13;;;29.11;47.28
79077;BME280;68477;42.698;23.342;2023-06-24T08:51:07;95463.91;;;29.47;46.35
79077;BME280;68477;42.698;23.342;2023-06-24T08:53:33;95463.25;;;29.31;45.88
79077;BME280;68477;42.698;23.342;2023-06-24T08:55:59;95461.66;;;29.59;45.90
79077;BME280;68477;42.698;23.342;2023-06-24T08:58:25;95461.59;;;29.64;44.65
79077;BME280;68477;42.698;23.342;2023-06-24T09:00:51;95460.63;;;29.79;43.91
79077;BME280;68477;42.698;23.342;2023-06-24T09:03:17;95457.38;;;30.01;43.90
79077;BME280;68477;42.698;23.342;2023-06-24T09:05:43;95454.16;;;29.99;41.83
79077;BME280;68477;42.698;23.342;2023-06-24T09:08:09;95454.69;;;30.25;43.26
79077;BME280;68477;42.698;23.342;2023-06-24T09:10:36;95456.66;;;30.38;43.54
79077;BME280;68477;42.698;23.342;2023-06-24T09:13:06;95454.16;;;30.41;43.25
79077;BME280;68477;42.698;23.342;2023-06-24T09:15:32;95449.38;;;30.33;41.84
79077;BME280;68477;42.698;23.342;2023-06-24T09:17:58;95448.50;;;29.95;42.11
79077;BME280;68477;42.698;23.342;2023-06-24T09:20:26;95448.84;;;30.12;42.14
79077;BME280;68477;42.698;23.342;2023-06-24T09:22:57;95447.47;;;30.15;43.83
79077;BME280;68477;42.698;23.342;2023-06-24T09:25:23;95458.41;;;30.29;41.49
79077;BME280;68477;42.698;23.342;2023-06-24T09:27:48;95463.16;;;30.80;41.83
79077;BME280;68477;42.698;23.342;2023-06-24T09:30:21;95455.75;;;31.18;42.09
79077;BME280;68477;42.698;23.342;2023-06-24T09:32:51;95456.25;;;31.39;41.17
79077;BME280;68477;42.698;23.342;2023-06-24T09:35:22;95452.09;;;31.27;39.00
79077;BME280;68477;42.698;23.342;2023-06-24T09:37:53;95458.50;;;30.99;39.43
79077;BME280;68477;42.698;23.342;2023-06-24T09:40:19;95461.06;;;31.28;39.42
79077;BME280;68477;42.698;23.342;2023-06-24T09:42:49;95462.78;;;30.67;39.68
79077;BME280;68477;42.698;23.342;2023-06-24T09:45:19;95461.78;;;31.15;40.67
79077;BME280;68477;42.698;23.342;2023-06-24T09:47:45;95457.84;;;31.07;40.62
79077;BME280;68477;42.698;23.342;2023-06-24T09:50:10;95460.16;;;31.46;40.63
79077;BME280;68477;42.698;23.342;2023-06-24T09:52:36;95467.63;;;31.41;41.61
79077;BME280;68477;42.698;23.342;2023-06-24T09:55:02;95447.84;;;31.21;40.34
79077;BME280;68477;42.698;23.342;2023-06-24T09:57:29;95449.91;;;31.57;38.46
79077;BME280;68477;42.698;23.342;2023-06-24T09:59:57;95449.91;;;31.57;38.44
79077;BME280;68477;42.698;23.342;2023-06-24T10:02:24;95446.38;;;31.56;37.61
79077;BME280;68477;42.698;23.342;2023-06-24T10:04:51;95440.78;;;31.80;37.81
79077;BME280;68477;42.698;23.342;2023-06-24T10:07:17;95439.28;;;31.88;40.15
79077;BME280;68477;42.698;23.342;2023-06-24T10:09:43;95440.44;;;31.54;39.08
79077;BME280;68477;42.698;23.342;2023-06-24T10:12:09;95426.28;;;31.25;39.56
79077;BME280;68477;42.698;23.342;2023-06-24T10:14:35;95437.44;;;31.56;38.24
79077;BME280;68477;42.698;23.342;2023-06-24T10:17:04;95420.13;;;31.79;39.60
79077;BME280;68477;42.698;23.342;2023-06-24T10:19:29;95418.34;;;31.89;40.12
79077;BME280;68477;42.698;23.342;2023-06-24T10:21:58;95413.81;;;31.84;38.69
79077;BME280;68477;42.698;23.342;2023-06-24T10:24:39;95400.28;;;31.93;39.58
79077;BME280;68477;42.698;23.342;2023-06-24T10:27:13;95404.41;;;32.18;39.65
79077;BME280;68477;42.698;23.342;2023-06-24T10:29:45;95390.16;;;32.34;36.23
79077;BME280;68477;42.698;23.342;2023-06-24T10:32:10;95389.97;;;32.31;37.66
79077;BME280;68477;42.698;23.342;2023-06-24T10:34:40;95385.91;;;32.42;37.92
79077;BME280;68477;42.698;23.342;2023-06-24T10:39:53;95385.13;;;32.64;36.79
79077;BME280;68477;42.698;23.342;2023-06-24T10:42:41;95381.81;;;32.31;36.63
79077;BME280;68477;42.698;23.342;2023-06-24T10:47:37;95370.63;;;32.55;36.61
79077;BME280;68477;42.698;23.342;2023-06-24T10:50:04;95362.53;;;32.41;34.94
79077;BME280;68477;42.698;23.342;2023-06-24T10:52:30;95360.16;;;32.70;34.85
79077;BME280;68477;42.698;23.342;2023-06-24T10:54:57;95346.66;;;32.43;33.98
79077;BME280;68477;42.698;23.342;2023-06-24T10:57:24;95346.91;;;32.78;34.09
79077;BME280;68477;42.698;23.342;2023-06-24T10:59:52;95349.28;;;32.93;35.58
79077;BME280;68477;42.698;23.342;2023-06-24T11:02:25;95351.81;;;32.67;32.62
79077;BME280;68477;42.698;23.342;2023-06-24T11:04:56;95334.47;;;32.40;33.12
79077;BME280;68477;42.698;23.342;2023-06-24T11:07:27;95339.47;;;32.47;33.47
79077;BME280;68477;42.698;23.342;2023-06-24T11:09:58;95336.34;;;32.18;35.90
79077;BME280;68477;42.698;23.342;2023-06-24T11:12:27;95340.50;;;32.51;33.25
79077;BME280;68477;42.698;23.342;2023-06-24T11:14:57;95342.38;;;32.87;34.15
79077;BME280;68477;42.698;23.342;2023-06-24T11:17:26;95350.25;;;33.19;35.19
79077;BME280;68477;42.698;23.342;2023-06-24T11:19:53;95344.69;;;33.33;32.38
79077;BME280;68477;42.698;23.342;2023-06-24T11:22:19;95339.94;;;33.47;32.13
79077;BME280;68477;42.698;23.342;2023-06-24T11:24:44;95338.50;;;33.41;34.80
79077;BME280;68477;42.698;23.342;2023-06-24T11:27:10;95351.38;;;33.27;32.84
79077;BME280;68477;42.698;23.342;2023-06-24T11:29:35;95349.47;;;33.27;31.17
79077;BME280;68477;42.698;23.342;2023-06-24T11:32:02;95345.78;;;33.63;31.25
79077;BME280;68477;42.698;23.342;2023-06-24T11:34:28;95349.00;;;33.74;32.19
79077;BME280;68477;42.698;23.342;2023-06-24T11:36:54;95343.00;;;33.15;32.62
79077;BME280;68477;42.698;23.342;2023-06-24T11:39:27;95339.78;;;33.13;31.16
79077;BME280;68477;42.698;23.342;2023-06-24T11:41:53;95335.81;;;33.19;29.51
79077;BME280;68477;42.698;23.342;2023-06-24T11:44:24;95323.16;;;32.92;31.41
79077;BME280;68477;42.698;23.342;2023-06-24T11:46:50;95323.38;;;32.59;31.37
79077;BME280;68477;42.698;23.342;2023-06-24T11:49:15;95326.97;;;32.46;31.46
79077;BME280;68477;42.698;23.342;2023-06-24T11:51:49;95320.91;;;31.63;32.90
79077;BME280;68477;42.698;23.342;2023-06-24T11:54:19;95312.84;;;31.44;33.34
79077;BME280;68477;42.698;23.342;2023-06-24T11:56:50;95315.34;;;31.82;34.89
79077;BME280;68477;42.698;23.342;2023-06-24T11:59:19;95306.56;;;31.71;32.38
79077;BME280;68477;42.698;23.342;2023-06-24T12:01:55;95301.19;;;32.07;32.84
79077;BME280;68477;42.698;23.342;2023-06-24T12:04:21;95296.06;;;32.06;34.18
79077;BME280;68477;42.698;23.342;2023-06-24T12:06:47;95290.34;;;32.16;33.99
79077;BME280;68477;42.698;23.342;2023-06-24T12:09:12;95280.22;;;32.08;34.31
79077;BME280;68477;42.698;23.342;2023-06-24T12:11:38;95271.47;;;31.97;35.68
79077;BME280;68477;42.698;23.342;2023-06-24T12:14:05;95277.81;;;31.93;36.52
79077;BME280;68477;42.698;23.342;2023-06-24T12:16:31;95268.06;;;31.92;34.52
79077;BME280;68477;42.698;23.342;2023-06-24T12:18:56;95279.81;;;31.51;37.10
79077;BME280;68477;42.698;23.342;2023-06-24T12:21:22;95268.59;;;31.66;35.53
79077;BME280;68477;42.698;23.342;2023-06-24T12:23:48;95284.94;;;31.52;35.09
79077;BME280;68477;42.698;23.342;2023-06-24T12:26:14;95272.84;;;31.17;36.68
79077;BME280;68477;42.698;23.342;2023-06-24T12:28:40;95275.56;;;31.04;37.89
79077;BME280;68477;42.698;23.342;2023-06-24T12:31:06;95266.88;;;30.88;39.26
79077;BME280;68477;42.698;23.342;2023-06-24T12:33:31;95264.88;;;30.93;38.79
79077;BME280;68477;42.698;23.342;2023-06-24T12:35:57;95264.16;;;30.88;40.28
79077;BME280;68477;42.698;23.342;2023-06-24T12:38:22;95262.56;;;30.87;39.05
79077;BME280;68477;42.698;23.342;2023-06-24T12:40:48;95272.31;;;31.01;36.73
79077;BME280;68477;42.698;23.342;2023-06-24T12:43:14;95287.69;;;30.79;38.37
79077;BME280;68477;42.698;23.342;2023-06-24T12:45:41;95304.28;;;30.77;38.87
79077;BME280;68477;42.698;23.342;2023-06-24T12:48:10;95321.00;;;30.52;37.07
79077;BME280;68477;42.698;23.342;2023-06-24T12:50:36;95324.94;;;30.59;36.72
79077;BME280;68477;42.698;23.342;2023-06-24T12:53:02;95325.53;;;30.56;39.86
79077;BME280;68477;42.698;23.342;2023-06-24T12:55:29;95334.88;;;30.50;37.03
79077;BME280;68477;42.698;23.342;2023-06-24T12:57:54;95334.88;;;30.50;36.87
79077;BME280;68477;42.698;23.342;2023-06-24T13:00:21;95338.41;;;30.32;38.47
79077;BME280;68477;42.698;23.342;2023-06-24T13:02:47;95335.72;;;30.13;38.89
79077;BME280;68477;42.698;23.342;2023-06-24T13:05:13;95326.53;;;30.09;40.33